Agana Heights, GU (96910)

12:15 AM ChST on August 06, 2015 (GMT +1000)
Maite | | Change Station
CLOSE
Current Station
Personal Weather Station
Location: Maite, GU
Elevation: 140 ft
Nearby Weather Stations
Active Advisory: High Surf Advisory

Elev 140 ft 13.48 °N, 144.76 °E | Updated 30 seconds ago

Partly Cloudy
Partly Cloudy
78.2 °F
Feels Like 81 °F
N
2.0
Wind Variable Wind from SSE
Gusts 5.0 mph

Today
High -- | Low -- °F
--% Chance of Precip.
Yesterday
High -- | Low -- °F
Precip. -- in
6:06 AM 6:47 PM
Waning Gibbous, 67% visible
Pressure 29.73 in
Visibility 10.0 miles
Clouds Few 1600 ft
Heat Index 81 °F
Dew Point 77 °F
Humidity 96%
Rainfall 0.00 in
Snow Depth Not available.
UV 0.0 out of 12
Pollen Not available.
Air Quality Not available.
Flu Activity Not available.
METAR PGUM 051354Z 17004KT 10SM FEW016 26/25 A2975 RMK AO2 SLP065 T02560250 403000239 $

More Conditions Fewer Conditions

Pressure 29.73 in
Visibility 10.0 miles
Clouds Few 1600 ft
Heat Index 81 °F
Dew Point 77 °F
Humidity 96%
Rainfall 0.00 in
Snow Depth Not available.
UV 0.0 out of 12
Pollen Not available.
Air Quality Not available.
Flu Activity Not available.
METAR PGUM 051354Z 17004KT 10SM FEW016 26/25 A2975 RMK AO2 SLP065 T02560250 403000239 $

More Conditions Fewer Conditions

10-Day Weather Forecast

×

Almanac

Astronomy

Aug. 06, 2015 Rise Set
Actual Time
Civil Twilight
Nautical Twilight
Astronomical Twilight
Moon
Length of Visible Light
Length of Day
Tomorrow will be .
, % of the Moon is Illuminated

Today's Extremes

State Highs State Lows

Community

WunderPhotos

Upload Photos

1,844,190 photos uploaded!

WunderBlogs® & News

Nearby

Air Quality

  Air Quality AQ Index Pollutant
Not available.

Snow Depth

Station Depth Elevation

Earthquake Activity

City Distance Mag. Time & Date
Minimum magnitude displayed is 2.5.

Coastal Water Temperatures

Place Temperature

Stations

Nearby Weather Stations

Station Location Temp. Windchill Dew Point Humidity Wind Precip. Elev Updated Type
                   
High Surf Advisory
Statement as of 4:06 PM GMT on August 05, 2015

... High surf advisory remains in effect until 6 PM chst Friday...

* expect hazardous surf of 9 to 12 feet along west facing reefs
through Friday.

* Expect hazardous surf of 7 to 10 feet along south and north
facing reefs through Friday.

Precautionary/preparedness actions...

Avoid venturing near exposed reefs and beaches... especially those
facing South... West and north... as rip currents will be life
threatening.



Kleeschulte